Aérodrome :
LOGIN :

S'inscrire | Disclaimer

   EN    FR    IT 

 










Légende :    VFR   VFR Marginal   IFR   IFR Intensif   IFR Très Intensif
Visi : 
Plafond : 
>= 8 km
>= 3000ft
5 à 8 km
1000 à 3000 ft
1500m à 5 km
500 à 1000 ft
800 à 1500m
200 à 500 ft
< 800m
< 200 ft
Symboles :   Orages  Brouillard  Fortes neiges  Fortes précipitations  Vent > 20 kt
SIGMETs :   Divers  Orages  Givrage  Turbulence  Onde Orograph.  Cendres Volcan.






- Altitude de l'aérodrome : 290 ft
- Code IATA : LAI


LFRO - Lannion

DERNIER METAR :
  • 150130Z AUTO 22013KT 200V260 9999 -DZ FEW017 BKN056 BKN072 08/06 Q0997

METARs EXPIRÉS :
  • 150100Z AUTO 23017G32KT 200V260 8000 -RA FEW028/// SCT036/// BKN050/// ///TCU 08/05 Q0997
  • 150030Z AUTO 24014KT CAVOK 08/06 Q0996
  • 150000Z AUTO 25017KT 9999 SCT008/// BKN013/// BKN049/// ///TCU 08/07 Q0996
  • 142330Z AUTO 24016KT 9999 BKN015/// BKN020/// BKN033/// ///CB 09/08 Q0995
  • 142300Z AUTO 25017KT 9999 BKN011/// OVC044/// ///CB 09/08 Q0995

Prévision TAF périmée.



MET'MAP, la Météo Aéronautique d'un coup d'oeil ! - Copyright ORBIFLY Décembre 2007 - Disclaimer

ORBIFLY MET'MAP TEAM :

Programmation & Développement : Alexandra Zaïnal
Sur une idée originale de : Baudouin d'Aumeries
Assistance à la programmation : Marc-Olivier Méhu
Soutien technique & logistique : Manuel Goepfert

Contact : metmap@orbifly.com




SOURCES & CREDITS :

   NOAA